createdAt,value
2023-02-11T00:00:17.671Z,24.70
2023-02-11T00:02:19.702Z,22.88
2023-02-11T00:04:21.790Z,22.13
2023-02-11T00:06:24.614Z,22.88
2023-02-11T00:08:26.781Z,20.73
2023-02-11T00:10:29.729Z,21.35
2023-02-11T00:12:31.674Z,23.05
2023-02-11T00:14:33.623Z,24.58
2023-02-11T00:16:35.633Z,22.05
2023-02-11T00:18:38.947Z,19.55
2023-02-11T00:20:41.302Z,22.30
2023-02-11T00:22:43.900Z,25.88
2023-02-11T00:24:46.082Z,20.63
2023-02-11T00:26:48.003Z,22.80
2023-02-11T00:28:51.384Z,20.17
2023-02-11T00:31:01.899Z,22.42
2023-02-11T00:33:04.529Z,19.38
2023-02-11T00:35:06.935Z,23.75
2023-02-11T00:37:09.128Z,22.88
2023-02-11T00:39:13.717Z,21.15
2023-02-11T00:41:16.598Z,23.15
2023-02-11T00:43:18.655Z,24.20
2023-02-11T00:45:21.863Z,21.33
2023-02-11T00:47:25.144Z,19.50
2023-02-11T00:49:29.310Z,25.60
2023-02-11T00:51:31.666Z,21.35
2023-02-11T00:53:34.294Z,21.15
2023-02-11T00:55:36.276Z,22.45
2023-02-11T00:57:38.213Z,22.08
2023-02-11T00:59:40.539Z,21.00
2023-02-11T01:01:42.499Z,20.55
2023-02-11T01:03:44.463Z,23.60
2023-02-11T01:05:46.659Z,18.52
2023-02-11T01:07:49.614Z,20.40
2023-02-11T01:09:51.670Z,22.63
2023-02-11T01:11:57.783Z,17.40
2023-02-11T01:13:59.699Z,19.25
2023-02-11T01:16:02.017Z,20.15
2023-02-11T01:18:06.052Z,19.92
2023-02-11T01:20:12.727Z,19.77
2023-02-11T01:22:14.667Z,21.35
2023-02-11T01:24:16.530Z,20.67
2023-02-11T01:26:18.571Z,18.08
2023-02-11T01:28:29.586Z,19.40
2023-02-11T01:30:32.094Z,22.75
2023-02-11T01:32:34.785Z,18.15
2023-02-11T01:34:36.652Z,18.27
2023-02-11T01:36:38.602Z,17.70
2023-02-11T01:38:42.018Z,18.25
2023-02-11T01:40:59.855Z,16.83
2023-02-11T01:43:01.769Z,19.10
2023-02-11T01:45:56.035Z,18.13
2023-02-11T01:47:58.021Z,19.30
2023-02-11T01:50:02.323Z,20.67
2023-02-11T01:52:10.831Z,21.95
2023-02-11T01:54:36.182Z,19.70
2023-02-11T01:57:02.905Z,20.55
2023-02-11T01:59:13.099Z,17.98
2023-02-11T02:01:19.845Z,17.23
2023-02-11T02:03:25.174Z,20.58
2023-02-11T02:05:40.377Z,23.25
2023-02-11T02:07:52.653Z,20.15
2023-02-11T02:10:04.797Z,19.75
2023-02-11T02:12:06.969Z,18.67
2023-02-11T02:14:14.742Z,19.20
2023-02-11T02:16:19.722Z,18.63
2023-02-11T02:18:57.680Z,19.05
2023-02-11T02:21:23.308Z,19.35
2023-02-11T02:23:33.736Z,19.73
2023-02-11T02:25:58.389Z,19.67
2023-02-11T02:28:31.233Z,19.77
2023-02-11T02:31:10.030Z,17.75
2023-02-11T02:33:23.318Z,17.00
2023-02-11T02:35:39.538Z,17.45
2023-02-11T02:38:03.716Z,18.48
2023-02-11T02:40:12.031Z,18.55
2023-02-11T02:42:15.154Z,17.70
2023-02-11T02:44:18.479Z,17.70
2023-02-11T02:46:23.556Z,20.77
2023-02-11T02:48:35.882Z,16.83
2023-02-11T02:50:38.383Z,19.35
2023-02-11T02:53:18.063Z,16.02
2023-02-11T02:55:52.176Z,19.10
2023-02-11T02:58:28.856Z,18.70
2023-02-11T03:00:50.982Z,19.30
2023-02-11T03:03:18.522Z,19.83
2023-02-11T03:06:05.073Z,17.83
2023-02-11T03:08:29.141Z,18.98
2023-02-11T03:10:36.719Z,16.27
2023-02-11T03:12:42.203Z,18.08
2023-02-11T03:14:45.541Z,22.60
2023-02-11T03:16:50.551Z,18.90
2023-02-11T03:19:03.359Z,15.40
2023-02-11T03:21:08.606Z,16.88
2023-02-11T03:23:29.313Z,18.80
2023-02-11T03:25:37.460Z,17.23
2023-02-11T03:27:48.436Z,16.85
2023-02-11T03:30:10.351Z,19.85
2023-02-11T03:34:30.379Z,19.55
2023-02-11T03:37:16.468Z,18.13
2023-02-11T03:39:26.088Z,16.63
2023-02-11T03:41:29.071Z,15.68
2023-02-11T03:43:38.205Z,18.80
2023-02-11T03:45:40.968Z,20.92
2023-02-11T03:47:48.983Z,23.30
2023-02-11T03:49:54.913Z,18.48
2023-02-11T03:52:01.211Z,17.80
2023-02-11T03:54:10.699Z,16.50
2023-02-11T03:56:18.216Z,17.98
2023-02-11T03:58:21.423Z,19.20
2023-02-11T04:00:35.006Z,19.58
2023-02-11T04:02:39.030Z,19.60
2023-02-11T04:04:41.025Z,17.73
2023-02-11T04:06:44.368Z,21.20
2023-02-11T04:08:46.309Z,21.35
2023-02-11T04:10:48.223Z,17.48
2023-02-11T04:12:50.221Z,17.98
2023-02-11T04:14:53.274Z,20.00
2023-02-11T04:16:57.150Z,21.88
2023-02-11T04:18:59.073Z,21.70
2023-02-11T04:21:02.110Z,21.40
2023-02-11T04:23:04.112Z,19.92
2023-02-11T04:25:07.034Z,20.63
2023-02-11T04:27:11.083Z,20.08
2023-02-11T04:29:13.093Z,19.33
2023-02-11T04:31:16.199Z,19.73
2023-02-11T04:33:19.156Z,19.98
2023-02-11T04:35:21.577Z,17.67
2023-02-11T04:37:24.462Z,18.60
2023-02-11T04:39:26.471Z,19.85
2023-02-11T04:41:28.443Z,21.20
2023-02-11T04:43:30.324Z,18.40
2023-02-11T04:45:33.938Z,20.00
2023-02-11T04:47:36.448Z,20.25
2023-02-11T04:49:39.544Z,21.27
2023-02-11T04:51:43.402Z,20.88
2023-02-11T04:53:45.285Z,19.08
2023-02-11T04:55:51.296Z,18.13
2023-02-11T04:57:53.541Z,20.70
2023-02-11T04:59:55.502Z,18.13
2023-02-11T05:01:57.475Z,20.27
2023-02-11T05:03:59.388Z,21.27
2023-02-11T05:06:01.574Z,19.33
2023-02-11T05:08:04.663Z,17.27
2023-02-11T05:10:06.841Z,19.58
2023-02-11T05:12:08.932Z,20.55
2023-02-11T05:14:10.863Z,17.80
2023-02-11T05:16:13.910Z,18.20
2023-02-11T05:18:15.933Z,17.75
2023-02-11T05:20:18.142Z,20.90
2023-02-11T05:22:21.508Z,19.77
2023-02-11T05:24:23.547Z,19.85
2023-02-11T05:26:26.002Z,19.15
2023-02-11T05:28:28.250Z,22.10
2023-02-11T05:30:34.204Z,18.95
2023-02-11T05:32:36.231Z,19.17
2023-02-11T05:34:39.183Z,18.27
2023-02-11T05:36:41.533Z,19.45
2023-02-11T05:38:44.022Z,18.63
2023-02-11T05:40:46.963Z,18.52
2023-02-11T05:42:50.908Z,18.70
2023-02-11T05:44:52.896Z,19.85
2023-02-11T05:46:54.878Z,19.90
2023-02-11T05:49:02.509Z,18.75
2023-02-11T05:51:05.648Z,19.50
2023-02-11T05:53:08.629Z,16.95
2023-02-11T05:55:11.008Z,18.20
2023-02-11T05:57:13.691Z,19.85
2023-02-11T05:59:15.870Z,23.85
2023-02-11T06:01:17.898Z,18.55
2023-02-11T06:03:22.838Z,18.90
2023-02-11T06:05:24.735Z,19.90
2023-02-11T06:07:27.794Z,21.25
2023-02-11T06:09:32.719Z,18.58
2023-02-11T06:11:34.718Z,20.08
2023-02-11T06:13:37.760Z,24.20
2023-02-11T06:15:39.773Z,20.55
2023-02-11T06:17:41.786Z,21.00
2023-02-11T06:19:43.728Z,18.20
2023-02-11T06:21:51.386Z,21.50
2023-02-11T06:23:55.452Z,22.27
2023-02-11T06:26:02.690Z,20.08
2023-02-11T06:28:04.931Z,22.88
2023-02-11T06:30:08.806Z,20.90
2023-02-11T06:32:36.897Z,18.52
2023-02-11T06:34:35.874Z,22.13
2023-02-11T06:36:41.158Z,19.65
2023-02-11T06:38:43.626Z,18.60
2023-02-11T06:40:49.861Z,21.77
2023-02-11T06:42:54.548Z,19.73
2023-02-11T06:44:56.528Z,19.77
2023-02-11T06:46:59.453Z,21.38
2023-02-11T06:49:01.531Z,22.05
2023-02-11T06:51:05.834Z,20.73
2023-02-11T06:53:07.744Z,20.83
2023-02-11T06:55:10.704Z,21.60
2023-02-11T06:57:12.666Z,20.63
2023-02-11T06:59:17.347Z,20.75
2023-02-11T07:01:19.377Z,21.15
2023-02-11T07:03:24.588Z,21.35
2023-02-11T07:05:26.530Z,21.95
2023-02-11T07:07:28.591Z,20.10
2023-02-11T07:09:30.660Z,20.73
2023-02-11T07:11:33.707Z,22.50
2023-02-11T07:13:35.750Z,22.50
2023-02-11T07:15:39.712Z,23.83
2023-02-11T07:17:41.771Z,20.98
2023-02-11T07:19:43.752Z,21.80
2023-02-11T07:21:45.720Z,22.23
2023-02-11T07:23:48.812Z,22.58
2023-02-11T07:25:51.888Z,21.73
2023-02-11T07:27:54.260Z,23.55
2023-02-11T07:29:56.225Z,24.27
2023-02-11T07:32:04.127Z,21.45
2023-02-11T07:34:06.146Z,24.45
2023-02-11T07:36:11.307Z,23.10
2023-02-11T07:38:13.204Z,25.15
2023-02-11T07:40:15.238Z,23.88
2023-02-11T07:42:17.178Z,25.48
2023-02-11T07:44:19.202Z,21.88
2023-02-11T07:46:26.689Z,24.83
2023-02-11T07:48:28.664Z,25.73
2023-02-11T07:50:32.626Z,23.25
2023-02-11T07:52:34.567Z,22.52
2023-02-11T07:54:36.688Z,22.75
2023-02-11T07:56:44.746Z,22.20
2023-02-11T07:58:48.415Z,22.23
2023-02-11T08:00:52.467Z,19.92
2023-02-11T08:03:00.507Z,24.10
2023-02-11T08:05:03.690Z,22.73
2023-02-11T08:07:07.388Z,22.20
2023-02-11T08:09:14.145Z,22.35
2023-02-11T08:11:25.813Z,23.65
2023-02-11T08:17:32.532Z,25.35
2023-02-11T08:19:35.471Z,24.30
2023-02-11T08:21:37.896Z,21.08
2023-02-11T08:23:41.105Z,22.10
2023-02-11T08:25:42.984Z,25.48
2023-02-11T08:27:44.924Z,22.20
2023-02-11T08:29:49.153Z,26.05
2023-02-11T08:31:51.222Z,23.00
2023-02-11T08:33:59.808Z,22.67
2023-02-11T08:36:02.491Z,25.27
2023-02-11T08:38:04.368Z,25.40
2023-02-11T08:40:06.785Z,23.30
2023-02-11T08:42:09.760Z,20.92
2023-02-11T08:44:11.822Z,22.95
2023-02-11T08:46:18.937Z,23.00
2023-02-11T08:48:23.057Z,23.63
2023-02-11T08:50:28.601Z,21.05
2023-02-11T08:52:31.704Z,22.95
2023-02-11T08:54:33.745Z,22.05
2023-02-11T08:56:38.238Z,22.25
2023-02-11T08:58:42.924Z,21.48
2023-02-11T09:00:47.762Z,22.65
2023-02-11T09:02:49.836Z,22.45
2023-02-11T09:04:53.803Z,21.52
2023-02-11T09:06:57.411Z,22.13
2023-02-11T09:08:59.495Z,21.05
2023-02-11T09:11:01.536Z,22.27
2023-02-11T09:13:06.686Z,23.38
2023-02-11T09:15:09.280Z,20.70
2023-02-11T09:17:11.462Z,21.70
2023-02-11T09:19:13.467Z,21.33
2023-02-11T09:21:18.271Z,21.83
2023-02-11T09:23:20.254Z,21.55
2023-02-11T09:25:22.398Z,20.92
2023-02-11T09:27:25.379Z,18.75
2023-02-11T09:29:29.475Z,20.95
2023-02-11T09:31:34.176Z,20.27
2023-02-11T09:33:38.109Z,23.55
2023-02-11T09:35:41.104Z,20.60
2023-02-11T09:37:44.085Z,21.50
2023-02-11T09:39:47.203Z,20.73
2023-02-11T09:42:27.992Z,21.55
2023-02-11T09:44:37.061Z,21.00
2023-02-11T09:46:42.910Z,22.08
2023-02-11T09:48:48.195Z,20.73
2023-02-11T09:50:57.131Z,21.83
2023-02-11T09:53:04.951Z,21.77
2023-02-11T09:55:18.966Z,21.60
2023-02-11T09:57:28.605Z,20.75
2023-02-11T09:59:31.175Z,21.02
2023-02-11T10:01:44.819Z,21.77
2023-02-11T10:04:03.226Z,22.38
2023-02-11T10:06:20.458Z,22.17
2023-02-11T10:08:57.104Z,21.48
2023-02-11T10:11:31.228Z,21.80
2023-02-11T10:14:11.596Z,21.67
2023-02-11T10:16:26.864Z,21.00
2023-02-11T10:18:35.496Z,22.73
2023-02-11T10:20:47.197Z,21.45
2023-02-11T10:22:55.929Z,20.80
2023-02-11T10:25:02.314Z,20.33
2023-02-11T10:27:18.057Z,20.75
2023-02-11T10:29:37.570Z,23.58
2023-02-11T10:31:43.741Z,21.00
2023-02-11T10:34:05.019Z,21.60
2023-02-11T10:36:11.408Z,22.92
2023-02-11T10:38:13.604Z,24.15
2023-02-11T10:40:27.474Z,22.63
2023-02-11T10:42:30.944Z,22.05
2023-02-11T10:44:34.310Z,16.85
2023-02-11T10:46:40.458Z,19.88
2023-02-11T10:48:51.774Z,21.13
2023-02-11T10:51:07.644Z,20.15
2023-02-11T10:53:16.568Z,20.48
2023-02-11T10:55:24.069Z,20.92
2023-02-11T10:57:36.079Z,20.38
2023-02-11T10:59:41.030Z,22.17
2023-02-11T11:01:51.289Z,22.60
2023-02-11T11:03:53.533Z,22.33
2023-02-11T11:06:02.215Z,22.45
2023-02-11T11:08:09.921Z,22.33
2023-02-11T11:10:46.150Z,22.73
2023-02-11T11:12:49.687Z,26.58
2023-02-11T11:15:00.021Z,24.08
2023-02-11T11:17:02.093Z,23.50
2023-02-11T11:19:07.750Z,23.30
2023-02-11T11:21:20.813Z,24.48
2023-02-11T11:23:25.411Z,26.15
2023-02-11T11:25:29.841Z,26.77
2023-02-11T11:27:33.346Z,25.52
2023-02-11T11:29:41.389Z,28.63
2023-02-11T11:32:05.848Z,27.75
2023-02-11T11:34:35.585Z,27.45
2023-02-11T11:36:40.498Z,26.65
2023-02-11T11:38:52.798Z,29.38
2023-02-11T11:41:24.782Z,27.77
2023-02-11T11:45:29.815Z,27.42
2023-02-11T11:47:43.584Z,27.73
2023-02-11T11:50:30.383Z,27.52
2023-02-11T11:52:32.425Z,28.02
2023-02-11T11:54:35.239Z,29.70
2023-02-11T11:56:46.994Z,28.73
2023-02-11T11:58:50.513Z,27.38
2023-02-11T12:01:19.869Z,29.92
2023-02-11T12:03:43.998Z,29.13
2023-02-11T12:05:55.911Z,30.17
2023-02-11T12:08:07.187Z,28.08
2023-02-11T12:10:15.073Z,27.08
2023-02-11T12:12:54.176Z,27.58
2023-02-11T12:15:10.779Z,29.08
2023-02-11T12:17:56.751Z,28.50
2023-02-11T12:20:26.452Z,28.67
2023-02-11T12:22:55.053Z,28.45
2023-02-11T12:25:22.804Z,30.10
2023-02-11T12:27:47.428Z,28.23
2023-02-11T12:29:52.009Z,28.52
2023-02-11T12:32:28.589Z,27.98
2023-02-11T12:34:57.235Z,29.90
2023-02-11T12:37:35.364Z,26.77
2023-02-11T12:39:50.523Z,26.70
2023-02-11T12:42:42.351Z,27.90
2023-02-11T12:44:53.288Z,28.48
2023-02-11T12:47:19.759Z,25.63
2023-02-11T12:49:51.145Z,26.48
2023-02-11T12:52:19.089Z,27.13
2023-02-11T12:54:47.350Z,25.83
2023-02-11T12:57:18.394Z,26.35
2023-02-11T12:59:46.991Z,26.30
2023-02-11T13:01:52.371Z,25.42
2023-02-11T13:04:30.640Z,27.23
2023-02-11T13:06:43.725Z,28.30
2023-02-11T13:09:01.614Z,25.00
2023-02-11T13:11:27.944Z,24.92
2023-02-11T13:13:43.514Z,26.33
2023-02-11T13:15:54.193Z,26.38
2023-02-11T13:18:27.113Z,27.00
2023-02-11T13:20:35.703Z,27.52
2023-02-11T13:22:49.324Z,26.40
2023-02-11T13:25:06.486Z,28.17
2023-02-11T13:27:44.328Z,25.08
2023-02-11T13:30:12.080Z,27.00
2023-02-11T13:32:18.332Z,27.85
2023-02-11T13:34:47.262Z,28.75
2023-02-11T13:36:56.286Z,28.77
2023-02-11T13:39:06.361Z,31.52
2023-02-11T13:41:30.490Z,30.05
2023-02-11T13:43:35.846Z,29.85
2023-02-11T13:45:46.540Z,29.92
2023-02-11T13:47:52.601Z,30.63
2023-02-11T13:50:02.693Z,30.17
2023-02-11T13:52:19.104Z,29.00
2023-02-11T13:54:45.866Z,27.77
2023-02-11T13:57:19.894Z,26.65
2023-02-11T13:59:28.515Z,29.88
2023-02-11T14:02:20.302Z,29.88
2023-02-11T14:04:44.397Z,28.90
2023-02-11T14:08:00.693Z,28.23
2023-02-11T14:10:04.670Z,29.83
2023-02-11T14:12:30.645Z,29.35
2023-02-11T14:14:34.186Z,28.58
2023-02-11T14:16:58.671Z,27.92
2023-02-11T14:19:02.682Z,27.98
2023-02-11T14:21:18.108Z,29.90
2023-02-11T14:23:28.753Z,27.08
2023-02-11T14:25:32.440Z,29.17
2023-02-11T14:27:54.839Z,27.92
2023-02-11T14:30:20.653Z,28.63
2023-02-11T14:33:01.922Z,31.40
2023-02-11T14:35:30.920Z,27.30
2023-02-11T14:37:53.598Z,32.92
2023-02-11T14:40:08.548Z,25.25
2023-02-11T14:42:23.258Z,27.17
2023-02-11T14:44:28.635Z,25.73
2023-02-11T14:46:33.317Z,24.83
2023-02-11T14:48:38.797Z,22.20
2023-02-11T14:50:52.243Z,23.40
2023-02-11T14:52:57.255Z,23.83
2023-02-11T14:55:18.130Z,22.15
2023-02-11T14:57:21.758Z,26.85
2023-02-11T14:59:24.448Z,25.23
2023-02-11T15:01:36.000Z,25.63
2023-02-11T15:03:41.857Z,25.42
2023-02-11T15:05:44.840Z,26.00
2023-02-11T15:07:50.446Z,26.33
2023-02-11T15:09:55.219Z,26.25
2023-02-11T15:11:59.558Z,24.10
2023-02-11T15:14:24.624Z,25.05
2023-02-11T15:16:28.876Z,23.75
2023-02-11T15:18:39.819Z,23.08
2023-02-11T15:20:42.494Z,23.80
2023-02-11T15:22:46.746Z,23.15
2023-02-11T15:25:04.497Z,23.02
2023-02-11T15:27:18.854Z,22.02
2023-02-11T15:29:25.911Z,21.27
2023-02-11T15:31:38.981Z,23.73
2023-02-11T15:33:41.614Z,22.70
2023-02-11T15:35:45.124Z,22.17
2023-02-11T15:37:50.616Z,21.10
2023-02-11T15:39:54.723Z,21.65
2023-02-11T15:41:57.032Z,21.25
2023-02-11T15:43:59.878Z,20.92
2023-02-11T15:46:03.170Z,20.65
2023-02-11T15:48:22.161Z,19.67
2023-02-11T15:50:31.486Z,18.98
2023-02-11T15:52:34.705Z,21.27
2023-02-11T15:54:38.632Z,19.67
2023-02-11T15:56:47.071Z,19.77
2023-02-11T15:58:54.775Z,20.05
2023-02-11T16:01:00.481Z,19.08
2023-02-11T16:03:03.822Z,20.48
2023-02-11T16:05:09.895Z,18.17
2023-02-11T16:07:43.883Z,18.67
2023-02-11T16:09:47.578Z,19.17
2023-02-11T16:11:59.733Z,19.55
2023-02-11T16:14:32.887Z,20.90
2023-02-11T16:16:37.508Z,17.17
2023-02-11T16:19:03.259Z,19.30
2023-02-11T16:21:14.897Z,18.58
2023-02-11T16:23:27.493Z,20.13
2023-02-11T16:25:30.332Z,17.85
2023-02-11T16:27:42.291Z,18.40
2023-02-11T16:29:49.589Z,17.65
2023-02-11T16:31:54.525Z,17.17
2023-02-11T16:33:58.437Z,17.35
2023-02-11T16:36:02.771Z,17.17
2023-02-11T16:38:05.833Z,17.20
2023-02-11T16:40:12.877Z,17.60
2023-02-11T16:42:17.894Z,18.38
2023-02-11T16:44:21.435Z,19.67
2023-02-11T16:46:24.323Z,16.83
2023-02-11T16:48:27.493Z,16.85
2023-02-11T16:50:30.319Z,17.27
2023-02-11T16:52:33.355Z,17.05
2023-02-11T16:54:37.679Z,18.77
2023-02-11T16:59:02.212Z,16.37
2023-02-11T17:01:07.291Z,17.67
2023-02-11T17:03:17.191Z,15.63
2023-02-11T17:05:23.679Z,17.45
2023-02-11T17:07:26.778Z,18.42
2023-02-11T17:09:31.090Z,16.13
2023-02-11T17:14:06.628Z,17.98
2023-02-11T17:16:23.132Z,16.75
2023-02-11T17:19:57.476Z,15.82
2023-02-11T17:22:06.849Z,14.95
2023-02-11T17:24:10.510Z,17.65
2023-02-11T17:26:15.098Z,15.65
2023-02-11T17:28:18.388Z,15.27
2023-02-11T17:30:20.836Z,16.67
2023-02-11T17:32:23.795Z,16.63
2023-02-11T17:34:29.894Z,18.00
2023-02-11T17:36:33.930Z,18.50
2023-02-11T17:38:38.159Z,19.55
2023-02-11T17:40:41.858Z,14.73
2023-02-11T17:42:44.898Z,16.30
2023-02-11T17:44:48.899Z,15.38
2023-02-11T17:46:51.819Z,15.55
2023-02-11T17:48:55.001Z,15.23
2023-02-11T17:51:01.226Z,15.75
2023-02-11T17:53:08.340Z,15.07
2023-02-11T17:57:29.775Z,17.30
2023-02-11T17:59:36.019Z,17.40
2023-02-11T18:01:40.248Z,17.95
2023-02-11T18:03:43.223Z,15.15
2023-02-11T18:05:46.804Z,16.17
2023-02-11T18:07:49.485Z,15.18
2023-02-11T18:09:53.671Z,15.40
2023-02-11T18:11:56.421Z,13.93
2023-02-11T18:14:14.259Z,14.25
2023-02-11T18:16:19.331Z,16.40
2023-02-11T18:18:23.684Z,16.70
2023-02-11T18:20:28.283Z,16.95
2023-02-11T18:22:34.417Z,16.25
2023-02-11T18:24:38.452Z,19.40
2023-02-11T18:26:42.452Z,17.27
2023-02-11T18:28:46.182Z,15.35
2023-02-11T18:30:49.359Z,15.77
2023-02-11T18:32:58.177Z,16.27
2023-02-11T18:35:00.789Z,14.45
2023-02-11T18:37:04.599Z,14.77
2023-02-11T18:39:07.119Z,15.15
2023-02-11T18:41:13.433Z,15.38
2023-02-11T18:43:16.104Z,15.25
2023-02-11T18:45:20.922Z,17.75
2023-02-11T18:47:24.450Z,16.98
2023-02-11T18:49:28.170Z,16.40
2023-02-11T18:51:33.054Z,16.10
2023-02-11T18:53:36.108Z,15.88
2023-02-11T18:55:44.672Z,14.65
2023-02-11T18:57:47.668Z,12.55
2023-02-11T18:59:51.545Z,15.20
2023-02-11T19:01:59.136Z,12.90
2023-02-11T19:04:05.213Z,12.07
2023-02-11T19:06:10.665Z,12.00
2023-02-11T19:08:14.285Z,12.30
2023-02-11T19:10:18.551Z,15.52
2023-02-11T19:12:21.655Z,14.15
2023-02-11T19:14:30.084Z,11.80
2023-02-11T19:16:33.043Z,12.18
2023-02-11T19:18:37.294Z,11.85
2023-02-11T19:20:42.614Z,11.57
2023-02-11T19:22:46.153Z,12.45
2023-02-11T19:24:52.034Z,11.30
2023-02-11T19:26:59.251Z,12.23
2023-02-11T19:29:03.489Z,11.30
2023-02-11T19:31:08.513Z,11.88
2023-02-11T19:33:12.048Z,10.85
2023-02-11T19:35:16.224Z,12.80
2023-02-11T19:37:21.390Z,12.07
2023-02-11T19:39:27.864Z,13.27
2023-02-11T19:41:32.733Z,11.23
2023-02-11T19:43:35.625Z,11.15
2023-02-11T19:45:44.602Z,11.38
2023-02-11T19:47:46.843Z,10.57
2023-02-11T19:49:52.112Z,11.85
2023-02-11T19:51:58.111Z,11.82
2023-02-11T19:54:02.169Z,12.30
2023-02-11T19:56:11.353Z,11.32
2023-02-11T19:58:14.681Z,13.63
2023-02-11T20:00:19.158Z,13.43
2023-02-11T20:02:26.262Z,13.07
2023-02-11T20:04:32.939Z,13.55
2023-02-11T20:06:37.426Z,13.93
2023-02-11T20:08:42.849Z,10.75
2023-02-11T20:10:45.282Z,12.00
2023-02-11T20:12:52.348Z,11.88
2023-02-11T20:14:55.119Z,12.70
2023-02-11T20:16:58.075Z,12.95
2023-02-11T20:19:01.348Z,13.95
2023-02-11T20:21:08.755Z,13.90
2023-02-11T20:23:12.452Z,13.30
2023-02-11T20:25:16.850Z,13.73
2023-02-11T20:27:20.260Z,14.18
2023-02-11T20:29:25.379Z,12.20
2023-02-11T20:31:29.205Z,13.07
2023-02-11T20:33:33.738Z,15.10
2023-02-11T20:35:45.336Z,13.88
2023-02-11T20:39:54.356Z,11.65
2023-02-11T20:41:59.692Z,13.70
2023-02-11T20:44:05.297Z,14.20
2023-02-11T20:46:08.595Z,12.75
2023-02-11T20:48:11.729Z,12.70
2023-02-11T20:50:20.351Z,11.68
2023-02-11T20:52:23.415Z,12.18
2023-02-11T20:54:26.813Z,13.07
2023-02-11T20:56:40.001Z,13.90
2023-02-11T20:58:42.951Z,12.85
2023-02-11T21:00:45.918Z,14.23
2023-02-11T21:02:53.336Z,13.75
2023-02-11T21:04:56.463Z,13.07
2023-02-11T21:07:02.210Z,11.25
2023-02-11T21:09:10.333Z,12.93
2023-02-11T21:11:13.224Z,14.60
2023-02-11T21:13:16.431Z,17.90
2023-02-11T21:15:19.228Z,19.90
2023-02-11T21:17:22.956Z,20.25
2023-02-11T21:19:27.080Z,19.33
2023-02-11T21:21:31.658Z,16.40
2023-02-11T21:23:35.451Z,18.92
2023-02-11T21:25:40.547Z,19.15
2023-02-11T21:27:46.920Z,16.77
2023-02-11T21:29:54.691Z,18.00
2023-02-11T21:32:03.802Z,16.48
2023-02-11T21:34:11.831Z,16.08
2023-02-11T21:36:15.758Z,18.98
2023-02-11T21:38:18.419Z,7.10
2023-02-11T21:40:27.887Z,14.27
2023-02-11T21:42:30.383Z,12.60
2023-02-11T21:44:34.291Z,9.95
2023-02-11T21:46:36.858Z,6.38
2023-02-11T21:48:40.632Z,10.30
2023-02-11T21:50:46.765Z,10.98
2023-02-11T21:52:55.226Z,4.35
2023-02-11T21:54:57.864Z,7.05
2023-02-11T21:57:03.314Z,5.45
2023-02-11T21:59:06.955Z,4.15
2023-02-11T22:01:19.447Z,6.18
2023-02-11T22:03:23.120Z,7.80
2023-02-11T22:05:25.929Z,6.97
2023-02-11T22:07:37.131Z,5.43
2023-02-11T22:09:41.113Z,7.10
2023-02-11T22:11:44.372Z,5.28
2023-02-11T22:13:47.147Z,7.80
2023-02-11T22:16:01.920Z,2.13
2023-02-11T22:18:04.176Z,8.57
2023-02-11T22:20:08.798Z,4.35
2023-02-11T22:22:19.872Z,5.45
2023-02-11T22:24:21.993Z,5.47
2023-02-11T22:26:26.120Z,6.07
2023-02-11T22:28:32.421Z,4.97
2023-02-11T22:30:34.605Z,4.28
2023-02-11T22:32:36.602Z,5.32
2023-02-11T22:34:39.241Z,4.97
2023-02-11T22:36:42.411Z,5.75
2023-02-11T22:38:44.581Z,4.60
2023-02-11T22:40:47.615Z,3.15
2023-02-11T22:42:49.626Z,5.38
2023-02-11T22:44:51.786Z,5.18
2023-02-11T22:46:54.143Z,4.10
2023-02-11T22:48:56.947Z,3.60
2023-02-11T22:51:08.684Z,4.97
2023-02-11T22:53:41.161Z,3.83
2023-02-11T22:55:45.326Z,3.10
2023-02-11T22:58:00.746Z,4.40
2023-02-11T23:01:00.957Z,2.75
2023-02-11T23:03:32.213Z,3.47
2023-02-11T23:06:17.168Z,4.57
2023-02-11T23:08:22.064Z,9.43
2023-02-11T23:10:24.957Z,5.53
2023-02-11T23:12:29.069Z,4.38
2023-02-11T23:14:45.801Z,5.18
2023-02-11T23:16:55.377Z,4.95
2023-02-11T23:19:05.564Z,4.63
2023-02-11T23:21:37.227Z,5.35
2023-02-11T23:23:45.421Z,1.10
2023-02-11T23:25:57.451Z,4.53
2023-02-11T23:28:08.898Z,3.92
2023-02-11T23:30:16.849Z,3.60
2023-02-11T23:32:29.807Z,2.97
2023-02-11T23:34:31.734Z,2.78
2023-02-11T23:36:40.727Z,3.63
2023-02-11T23:38:43.168Z,3.60
2023-02-11T23:40:45.096Z,2.92
2023-02-11T23:42:49.967Z,3.95
2023-02-11T23:44:51.960Z,2.53
2023-02-11T23:46:54.013Z,2.70
2023-02-11T23:48:56.357Z,2.83
2023-02-11T23:50:59.460Z,1.63
2023-02-11T23:53:01.433Z,3.55
2023-02-11T23:55:09.946Z,4.20
2023-02-11T23:57:14.247Z,3.38
2023-02-11T23:59:16.198Z,2.13
